createdAt,value
2018-06-19T00:20:23.008Z,0.0
2018-06-19T00:45:11.144Z,0.0
2018-06-19T01:06:51.420Z,0.0
2018-06-19T01:18:56.217Z,0.0
2018-06-19T01:40:25.395Z,0.0
2018-06-19T01:50:40.223Z,0.0
2018-06-19T02:02:03.727Z,0.0
2018-06-19T02:15:41.329Z,0.0
2018-06-19T02:27:50.321Z,0.0
2018-06-19T02:38:04.556Z,0.0
2018-06-19T02:50:08.417Z,0.0
2018-06-19T03:03:16.196Z,0.0
2018-06-19T03:44:04.515Z,5.0
2018-06-19T03:54:57.779Z,10.0
2018-06-19T04:06:08.390Z,20.0
2018-06-19T04:17:24.115Z,25.0
2018-06-19T04:28:21.652Z,30.0
2018-06-19T04:40:07.389Z,50.0
2018-06-19T04:51:25.217Z,45.0
2018-06-19T05:01:39.534Z,55.0
2018-06-19T05:11:53.141Z,85.0
2018-06-19T05:22:04.385Z,85.0
2018-06-19T05:33:11.570Z,85.0
2018-06-19T05:43:25.671Z,95.0
2018-06-19T05:53:39.471Z,125.0
2018-06-19T06:03:54.197Z,100.0
2018-06-19T06:14:06.307Z,150.0
2018-06-19T06:24:20.682Z,155.0
2018-06-19T06:35:38.752Z,150.0
2018-06-19T06:45:53.124Z,220.0
2018-06-19T06:56:07.272Z,235.0
2018-06-19T07:06:21.792Z,245.0
2018-06-19T07:17:07.303Z,210.0
2018-06-19T07:27:53.016Z,165.0
2018-06-19T07:38:14.515Z,135.0
2018-06-19T07:48:27.280Z,230.0
2018-06-19T07:58:40.944Z,280.0
2018-06-19T08:08:55.184Z,265.0
2018-06-19T08:19:07.498Z,265.0
2018-06-19T08:29:19.943Z,265.0
2018-06-19T08:39:33.904Z,290.0
2018-06-19T08:49:48.173Z,240.0
2018-06-19T09:00:02.539Z,210.0
2018-06-19T09:10:48.098Z,140.0
2018-06-19T09:21:02.414Z,250.0
2018-06-19T09:31:16.819Z,245.0
2018-06-19T09:42:02.263Z,310.0
2018-06-19T09:52:16.799Z,415.0
2018-06-19T10:02:31.015Z,495.0
2018-06-19T10:12:45.235Z,500.0
2018-06-19T10:23:39.974Z,535.0
2018-06-19T10:34:18.601Z,460.0
2018-06-19T10:46:20.357Z,510.0
2018-06-19T10:56:35.011Z,630.0
2018-06-19T11:06:48.703Z,820.0
2018-06-19T11:17:50.750Z,300.0
2018-06-19T11:30:29.652Z,590.0
2018-06-19T11:40:53.719Z,630.0
2018-06-19T11:51:09.808Z,480.0
2018-06-19T12:40:26.053Z,205.0
2018-06-19T12:51:12.690Z,1135.0
2018-06-19T13:04:30.838Z,1255.0
2018-06-19T13:42:56.814Z,175.0
2018-06-19T13:57:13.608Z,405.0
2018-06-19T14:10:23.595Z,445.0
2018-06-19T14:21:53.618Z,665.0
2018-06-19T14:46:40.048Z,315.0
2018-06-19T15:24:12.957Z,180.0
2018-06-19T15:50:48.955Z,190.0
2018-06-19T16:05:04.209Z,140.0
2018-06-19T16:17:21.721Z,75.0
2018-06-19T16:30:23.978Z,90.0
2018-06-19T16:58:52.906Z,210.0
2018-06-19T18:11:25.162Z,80.0
2018-06-19T18:22:48.253Z,65.0
2018-06-19T18:35:11.888Z,45.0
2018-06-19T19:13:51.327Z,20.0
2018-06-19T19:27:15.970Z,10.0
2018-06-19T19:55:33.764Z,0.0
2018-06-19T20:09:37.638Z,0.0
2018-06-19T20:20:35.783Z,0.0
2018-06-19T20:30:49.132Z,0.0
2018-06-19T20:56:46.413Z,0.0
2018-06-19T22:35:19.529Z,0.0
2018-06-19T22:48:42.351Z,0.0
2018-06-19T22:58:57.389Z,0.0
2018-06-19T23:09:12.381Z,0.0
2018-06-19T23:20:33.665Z,0.0
2018-06-19T23:31:18.782Z,0.0
